createdAt,value
2017-11-03T00:00:17.043Z,112.60
2017-11-03T00:02:45.400Z,122.87
2017-11-03T00:05:13.015Z,105.00
2017-11-03T00:07:40.648Z,103.87
2017-11-03T00:10:09.023Z,90.67
2017-11-03T00:12:36.591Z,104.97
2017-11-03T00:15:04.946Z,96.53
2017-11-03T00:17:32.530Z,99.70
2017-11-03T00:20:00.906Z,105.03
2017-11-03T00:22:29.287Z,97.63
2017-11-03T00:24:57.646Z,95.87
2017-11-03T00:27:25.230Z,106.97
2017-11-03T00:29:53.616Z,107.93
2017-11-03T00:32:21.992Z,100.47
2017-11-03T00:34:50.371Z,101.57
2017-11-03T00:37:18.750Z,91.37
2017-11-03T00:39:47.115Z,98.10
2017-11-03T00:42:14.726Z,100.07
2017-11-03T00:44:42.458Z,96.73
2017-11-03T00:47:10.819Z,94.70
2017-11-03T00:49:38.428Z,99.63
2017-11-03T00:52:05.999Z,97.90
2017-11-03T00:54:33.618Z,99.83
2017-11-03T00:57:01.959Z,88.10
2017-11-03T00:59:29.539Z,98.87
2017-11-03T01:01:57.141Z,89.63
2017-11-03T01:04:24.724Z,99.33
2017-11-03T01:06:52.336Z,105.57
2017-11-03T01:09:20.691Z,97.63
2017-11-03T01:11:48.308Z,104.87
2017-11-03T01:14:15.912Z,100.33
2017-11-03T01:16:43.512Z,108.03
2017-11-03T01:19:11.862Z,108.47
2017-11-03T01:21:39.488Z,105.97
2017-11-03T01:24:07.137Z,94.57
2017-11-03T01:26:35.024Z,93.43
2017-11-03T01:29:02.607Z,93.33
2017-11-03T01:31:30.231Z,92.60
2017-11-03T01:33:57.818Z,112.33
2017-11-03T01:36:25.399Z,98.77
2017-11-03T01:38:52.991Z,87.97
2017-11-03T01:41:21.340Z,101.17
2017-11-03T01:43:48.928Z,91.63
2017-11-03T01:46:17.290Z,106.00
2017-11-03T01:48:44.899Z,101.57
2017-11-03T01:51:12.523Z,101.63
2017-11-03T01:53:40.899Z,100.57
2017-11-03T01:56:09.300Z,102.30
2017-11-03T01:58:36.903Z,99.83
2017-11-03T02:01:04.542Z,105.70
2017-11-03T02:03:32.166Z,106.00
2017-11-03T02:06:00.562Z,100.67
2017-11-03T02:08:28.907Z,93.93
2017-11-03T02:10:56.508Z,95.30
2017-11-03T02:13:24.860Z,116.50
2017-11-03T02:15:52.427Z,102.47
2017-11-03T02:18:20.894Z,90.10
2017-11-03T02:20:48.536Z,103.40
2017-11-03T02:23:16.138Z,99.30
2017-11-03T02:25:44.538Z,94.60
2017-11-03T02:28:12.146Z,103.63
2017-11-03T02:30:39.804Z,82.90
2017-11-03T02:33:07.409Z,92.37
2017-11-03T02:35:36.129Z,88.23
2017-11-03T02:38:03.725Z,97.60
2017-11-03T02:40:31.332Z,90.20
2017-11-03T02:42:58.951Z,100.30
2017-11-03T02:45:26.534Z,91.53
2017-11-03T02:47:54.888Z,94.03
2017-11-03T02:50:23.619Z,110.57
2017-11-03T02:52:51.224Z,108.27
2017-11-03T02:55:18.814Z,118.70
2017-11-03T02:57:46.395Z,104.20
2017-11-03T03:00:14.733Z,114.17
2017-11-03T03:02:42.654Z,106.80
2017-11-03T03:05:10.238Z,105.30
2017-11-03T03:07:37.802Z,116.47
2017-11-03T03:10:05.394Z,113.20
2017-11-03T03:12:32.991Z,115.53
2017-11-03T03:15:00.597Z,107.07
2017-11-03T03:17:28.291Z,115.73
2017-11-03T03:19:55.869Z,97.17
2017-11-03T03:22:24.255Z,103.53
2017-11-03T03:24:52.588Z,115.93
2017-11-03T03:27:20.173Z,118.83
2017-11-03T03:29:47.774Z,109.50
2017-11-03T03:32:15.353Z,116.87
2017-11-03T03:34:42.963Z,111.30
2017-11-03T03:37:11.294Z,105.10
2017-11-03T03:39:38.910Z,118.40
2017-11-03T03:42:07.234Z,106.37
2017-11-03T03:44:34.839Z,97.40
2017-11-03T03:47:02.458Z,111.27
2017-11-03T03:49:30.051Z,123.70
2017-11-03T03:51:58.401Z,111.20
2017-11-03T03:54:26.106Z,111.47
2017-11-03T03:56:54.477Z,100.27
2017-11-03T03:59:22.090Z,109.80
2017-11-03T04:01:49.674Z,110.83
2017-11-03T04:04:17.230Z,111.70
2017-11-03T04:06:44.842Z,109.80
2017-11-03T04:09:13.174Z,98.77
2017-11-03T04:11:40.809Z,112.13
2017-11-03T04:14:08.358Z,96.80
2017-11-03T04:16:35.930Z,105.47
2017-11-03T04:19:03.548Z,100.17
2017-11-03T04:21:31.114Z,94.27
2017-11-03T04:23:59.454Z,111.60
2017-11-03T04:26:27.036Z,97.93
2017-11-03T04:28:57.658Z,100.73
2017-11-03T04:31:25.240Z,86.43
2017-11-03T04:33:52.818Z,101.83
2017-11-03T04:36:21.125Z,105.67
2017-11-03T04:38:48.700Z,95.80
2017-11-03T04:41:16.299Z,96.93
2017-11-03T04:43:43.865Z,87.93
2017-11-03T04:46:11.459Z,111.03
2017-11-03T04:48:39.031Z,113.70
2017-11-03T04:51:06.631Z,89.77
2017-11-03T04:53:34.210Z,99.63
2017-11-03T04:56:02.565Z,98.80
2017-11-03T04:58:30.151Z,104.37
2017-11-03T05:00:58.517Z,91.50
2017-11-03T05:03:26.203Z,98.07
2017-11-03T05:05:54.554Z,103.53
2017-11-03T05:08:22.137Z,105.30
2017-11-03T05:10:50.470Z,96.40
2017-11-03T05:13:18.042Z,98.90
2017-11-03T05:15:45.646Z,100.90
2017-11-03T05:18:14.015Z,101.90
2017-11-03T05:20:41.582Z,117.53
2017-11-03T05:23:09.946Z,107.03
2017-11-03T05:25:37.531Z,97.77
2017-11-03T05:28:05.858Z,100.00
2017-11-03T05:30:33.450Z,103.73
2017-11-03T05:33:01.794Z,104.63
2017-11-03T05:35:29.363Z,101.10
2017-11-03T05:37:56.914Z,96.50
2017-11-03T05:40:24.524Z,106.17
2017-11-03T05:42:52.855Z,103.07
2017-11-03T05:45:20.458Z,91.17
2017-11-03T05:47:48.036Z,100.70
2017-11-03T05:50:16.403Z,104.97
2017-11-03T05:52:44.966Z,109.53
2017-11-03T05:55:12.554Z,99.43
2017-11-03T05:57:40.894Z,102.50
2017-11-03T06:00:08.482Z,101.33
2017-11-03T06:02:36.073Z,88.03
2017-11-03T06:05:03.738Z,93.13
2017-11-03T06:07:31.346Z,96.50
2017-11-03T06:09:58.957Z,94.47
2017-11-03T06:12:26.545Z,94.63
2017-11-03T06:14:54.118Z,93.77
2017-11-03T06:17:21.713Z,89.60
2017-11-03T06:19:49.299Z,98.87
2017-11-03T06:22:16.886Z,95.00
2017-11-03T06:24:44.463Z,91.63
2017-11-03T06:27:12.065Z,93.87
2017-11-03T06:29:40.428Z,87.57
2017-11-03T06:32:07.998Z,88.53
2017-11-03T06:34:36.374Z,87.00
2017-11-03T06:37:04.134Z,88.03
2017-11-03T06:39:31.722Z,81.40
2017-11-03T06:42:00.106Z,75.43
2017-11-03T06:44:27.962Z,84.53
2017-11-03T06:46:56.293Z,85.47
2017-11-03T06:49:23.879Z,85.93
2017-11-03T06:51:51.499Z,90.07
2017-11-03T06:54:19.064Z,88.03
2017-11-03T06:56:46.655Z,88.17
2017-11-03T06:59:14.427Z,79.67
2017-11-03T07:01:42.026Z,75.47
2017-11-03T07:04:09.606Z,88.17
2017-11-03T07:06:37.171Z,91.37
2017-11-03T07:09:04.751Z,83.90
2017-11-03T07:11:32.328Z,81.70
2017-11-03T07:13:59.990Z,75.53
2017-11-03T07:16:27.545Z,93.80
2017-11-03T07:18:55.127Z,93.53
2017-11-03T07:21:22.698Z,84.50
2017-11-03T07:23:51.056Z,83.97
2017-11-03T07:26:18.665Z,99.07
2017-11-03T07:28:46.231Z,91.03
2017-11-03T07:31:13.914Z,96.80
2017-11-03T07:33:41.527Z,82.33
2017-11-03T07:36:09.875Z,87.73
2017-11-03T07:38:37.475Z,77.07
2017-11-03T07:41:05.091Z,92.17
2017-11-03T07:43:32.670Z,83.33
2017-11-03T07:46:00.341Z,92.07
2017-11-03T07:48:27.950Z,104.67
2017-11-03T07:50:56.312Z,82.80
2017-11-03T07:53:23.902Z,88.03
2017-11-03T07:55:51.502Z,86.10
2017-11-03T07:58:19.086Z,85.77
2017-11-03T08:00:47.430Z,91.70
2017-11-03T08:03:15.030Z,90.03
2017-11-03T08:05:43.763Z,84.83
2017-11-03T08:08:12.058Z,86.03
2017-11-03T08:10:39.669Z,86.60
2017-11-03T08:13:07.303Z,87.13
2017-11-03T08:15:35.640Z,79.50
2017-11-03T08:18:03.201Z,81.07
2017-11-03T08:20:30.834Z,76.63
2017-11-03T08:22:58.422Z,86.20
2017-11-03T08:25:26.016Z,77.23
2017-11-03T08:27:53.630Z,83.43
2017-11-03T08:30:22.595Z,85.30
2017-11-03T08:32:50.218Z,94.97
2017-11-03T08:35:17.810Z,81.00
2017-11-03T08:37:46.182Z,100.27
2017-11-03T08:40:14.567Z,87.97
2017-11-03T08:42:42.928Z,83.67
2017-11-03T08:45:10.530Z,84.93
2017-11-03T08:47:38.122Z,88.90
2017-11-03T08:50:05.723Z,84.60
2017-11-03T08:52:34.151Z,98.13
2017-11-03T08:55:01.755Z,93.27
2017-11-03T08:57:29.352Z,86.60
2017-11-03T08:59:56.942Z,88.27
2017-11-03T09:02:24.530Z,89.30
2017-11-03T09:04:52.125Z,89.70
2017-11-03T09:07:20.501Z,84.57
2017-11-03T09:09:48.855Z,81.60
2017-11-03T09:12:16.482Z,79.27
2017-11-03T09:14:44.047Z,79.20
2017-11-03T09:17:11.719Z,82.67
2017-11-03T09:19:39.322Z,88.63
2017-11-03T09:22:07.958Z,81.90
2017-11-03T09:24:35.556Z,84.53
2017-11-03T09:27:03.159Z,82.37
2017-11-03T09:29:30.752Z,92.60
2017-11-03T09:31:58.356Z,87.70
2017-11-03T09:34:26.708Z,93.10
2017-11-03T09:36:54.299Z,91.80
2017-11-03T09:39:22.662Z,91.33
2017-11-03T09:41:50.239Z,138.03
2017-11-03T09:44:18.678Z,146.93
2017-11-03T09:46:46.260Z,90.60
2017-11-03T09:49:13.881Z,87.63
2017-11-03T09:51:41.459Z,83.00
2017-11-03T09:54:09.025Z,82.07
2017-11-03T09:56:36.618Z,79.83
2017-11-03T09:59:05.031Z,87.53
2017-11-03T10:01:32.614Z,87.90
2017-11-03T10:04:00.192Z,83.00
2017-11-03T10:06:27.859Z,82.47
2017-11-03T10:08:55.450Z,89.77
2017-11-03T10:11:24.066Z,99.20
2017-11-03T10:13:51.958Z,97.87
2017-11-03T10:16:19.535Z,90.27
2017-11-03T10:18:47.123Z,86.73
2017-11-03T10:21:15.579Z,81.83
2017-11-03T10:23:43.164Z,86.63
2017-11-03T10:26:11.499Z,83.77
2017-11-03T10:28:39.079Z,79.50
2017-11-03T10:31:06.696Z,82.03
2017-11-03T10:33:34.301Z,104.10
2017-11-03T10:36:01.960Z,111.63
2017-11-03T10:38:29.534Z,97.10
2017-11-03T10:40:57.227Z,85.10
2017-11-03T10:43:25.610Z,84.47
2017-11-03T10:45:53.202Z,73.43
2017-11-03T10:48:20.796Z,71.67
2017-11-03T10:50:48.424Z,81.23
2017-11-03T10:53:16.021Z,81.43
2017-11-03T10:55:43.615Z,77.47
2017-11-03T10:58:11.221Z,81.63
2017-11-03T11:00:38.763Z,71.53
2017-11-03T11:03:06.384Z,67.57
2017-11-03T11:05:34.726Z,73.13
2017-11-03T11:08:02.320Z,87.87
2017-11-03T11:10:29.901Z,72.30
2017-11-03T11:12:57.491Z,74.43
2017-11-03T11:15:25.085Z,84.70
2017-11-03T11:17:52.642Z,67.73
2017-11-03T11:20:20.248Z,71.00
2017-11-03T11:22:48.587Z,66.83
2017-11-03T11:25:16.173Z,75.97
2017-11-03T11:27:44.546Z,75.87
2017-11-03T11:30:12.122Z,67.13
2017-11-03T11:32:40.484Z,67.50
2017-11-03T11:35:08.098Z,74.70
2017-11-03T11:37:35.704Z,69.80
2017-11-03T11:40:03.285Z,62.00
2017-11-03T11:42:31.654Z,73.37
2017-11-03T11:44:59.986Z,74.37
2017-11-03T11:47:27.657Z,64.47
2017-11-03T11:49:55.231Z,71.37
2017-11-03T11:52:22.850Z,63.77
2017-11-03T11:54:50.498Z,72.37
2017-11-03T11:57:18.070Z,67.70
2017-11-03T11:59:45.663Z,72.93
2017-11-03T12:02:13.235Z,63.73
2017-11-03T12:04:40.831Z,57.97
2017-11-03T12:07:09.199Z,57.90
2017-11-03T12:09:37.107Z,63.03
2017-11-03T12:12:04.682Z,69.40
2017-11-03T12:14:32.244Z,61.40
2017-11-03T12:16:59.831Z,72.20
2017-11-03T12:19:27.400Z,90.90
2017-11-03T12:21:54.994Z,260.73
2017-11-03T12:24:23.358Z,68.23
2017-11-03T12:26:51.707Z,58.97
2017-11-03T12:29:19.293Z,86.60
2017-11-03T12:31:47.679Z,65.43
2017-11-03T12:34:16.006Z,83.47
2017-11-03T12:36:43.614Z,76.77
2017-11-03T12:39:11.215Z,69.20
2017-11-03T12:41:38.830Z,168.97
2017-11-03T12:44:06.479Z,66.93
2017-11-03T12:46:34.049Z,63.10
2017-11-03T12:49:01.629Z,65.03
2017-11-03T12:51:29.982Z,60.30
2017-11-03T12:53:57.550Z,82.97
2017-11-03T12:56:25.154Z,90.30
2017-11-03T12:58:52.822Z,88.53
2017-11-03T13:01:20.366Z,83.97
2017-11-03T13:03:47.934Z,68.67
2017-11-03T13:06:15.544Z,66.47
2017-11-03T13:08:43.117Z,64.70
2017-11-03T13:11:10.704Z,60.83
2017-11-03T13:13:39.018Z,73.77
2017-11-03T13:16:06.596Z,63.40
2017-11-03T13:18:34.160Z,56.03
2017-11-03T13:21:01.930Z,63.40
2017-11-03T13:23:29.539Z,57.97
2017-11-03T13:25:57.099Z,66.57
2017-11-03T13:28:24.778Z,68.63
2017-11-03T13:30:52.419Z,60.47
2017-11-03T13:33:20.792Z,52.70
2017-11-03T13:35:49.158Z,57.53
2017-11-03T13:38:16.734Z,55.23
2017-11-03T13:40:45.143Z,57.03
2017-11-03T13:43:12.703Z,70.13
2017-11-03T13:45:41.038Z,50.53
2017-11-03T13:48:08.608Z,59.83
2017-11-03T13:50:36.977Z,59.10
2017-11-03T13:53:05.709Z,50.67
2017-11-03T13:55:33.289Z,57.87
2017-11-03T13:58:00.851Z,71.40
2017-11-03T14:00:29.318Z,125.70
2017-11-03T14:02:57.019Z,122.37
2017-11-03T14:05:24.602Z,98.87
2017-11-03T14:07:52.972Z,61.10
2017-11-03T14:10:21.430Z,47.10
2017-11-03T14:12:49.004Z,51.27
2017-11-03T14:15:16.591Z,42.67
2017-11-03T14:17:45.735Z,50.03
2017-11-03T14:20:13.358Z,49.43
2017-11-03T14:22:41.742Z,46.03
2017-11-03T14:25:09.333Z,43.90
2017-11-03T14:27:36.944Z,40.27
2017-11-03T14:30:05.303Z,37.57
2017-11-03T14:32:32.887Z,72.50
2017-11-03T14:35:01.897Z,38.33
2017-11-03T14:37:29.479Z,80.13
2017-11-03T14:39:57.815Z,103.97
2017-11-03T14:42:25.442Z,33.73
2017-11-03T14:44:53.031Z,33.40
2017-11-03T14:47:20.641Z,33.80
2017-11-03T14:49:48.230Z,31.30
2017-11-03T14:52:15.819Z,36.47
2017-11-03T14:54:43.394Z,40.57
2017-11-03T14:57:11.783Z,37.40
2017-11-03T14:59:39.430Z,39.70
2017-11-03T15:02:07.779Z,38.10
2017-11-03T15:04:35.378Z,33.67
2017-11-03T15:07:03.684Z,35.33
2017-11-03T15:09:31.299Z,38.07
2017-11-03T15:11:58.882Z,29.80
2017-11-03T15:14:27.263Z,30.97
2017-11-03T15:16:55.594Z,35.53
2017-11-03T15:19:23.169Z,34.57
2017-11-03T15:21:50.773Z,30.40
2017-11-03T15:24:18.395Z,31.77
2017-11-03T15:26:45.989Z,40.80
2017-11-03T15:29:13.573Z,33.93
2017-11-03T15:31:41.170Z,39.60
2017-11-03T15:34:08.739Z,38.90
2017-11-03T15:36:36.344Z,34.53
2017-11-03T15:39:03.896Z,45.70
2017-11-03T15:41:31.498Z,31.00
2017-11-03T15:43:59.071Z,42.40
2017-11-03T15:46:26.666Z,42.33
2017-11-03T15:48:55.010Z,39.93
2017-11-03T15:51:22.573Z,40.63
2017-11-03T15:53:50.188Z,72.30
2017-11-03T15:56:17.762Z,43.53
2017-11-03T15:58:45.359Z,42.30
2017-11-03T16:01:13.034Z,37.23
2017-11-03T16:03:40.627Z,62.90
2017-11-03T16:06:08.203Z,52.10
2017-11-03T16:08:35.806Z,34.27
2017-11-03T16:11:03.392Z,38.03
2017-11-03T16:13:30.983Z,39.43
2017-11-03T16:15:58.570Z,57.57
2017-11-03T16:18:26.154Z,54.47
2017-11-03T16:20:53.745Z,50.90
2017-11-03T16:23:22.099Z,50.93
2017-11-03T16:25:50.507Z,42.40
2017-11-03T16:28:18.857Z,40.03
2017-11-03T16:30:46.432Z,37.03
2017-11-03T16:33:14.023Z,38.93
2017-11-03T16:35:41.593Z,45.20
2017-11-03T16:38:09.172Z,44.87
2017-11-03T16:40:36.730Z,43.30
2017-11-03T16:43:04.312Z,48.00
2017-11-03T16:45:31.891Z,40.43
2017-11-03T16:48:00.272Z,58.97
2017-11-03T16:50:27.846Z,40.37
2017-11-03T16:52:56.190Z,41.03
2017-11-03T16:55:23.791Z,47.63
2017-11-03T16:57:52.151Z,42.23
2017-11-03T17:00:20.489Z,36.37
2017-11-03T17:02:48.107Z,34.43
2017-11-03T17:05:16.535Z,48.67
2017-11-03T17:07:44.126Z,50.30
2017-11-03T17:10:11.719Z,53.97
2017-11-03T17:12:40.085Z,40.80
2017-11-03T17:15:07.704Z,148.37
2017-11-03T17:17:35.293Z,60.07
2017-11-03T17:20:02.941Z,60.63
2017-11-03T17:22:30.629Z,55.00
2017-11-03T17:24:58.239Z,60.53
2017-11-03T17:27:25.852Z,54.90
2017-11-03T17:29:53.510Z,60.80
2017-11-03T17:32:21.092Z,44.93
2017-11-03T17:34:49.420Z,39.50
2017-11-03T17:37:17.043Z,43.77
2017-11-03T17:39:44.671Z,41.50
2017-11-03T17:42:12.215Z,38.63
2017-11-03T17:44:39.867Z,42.00
2017-11-03T17:47:07.467Z,43.50
2017-11-03T17:49:35.040Z,36.47
2017-11-03T17:52:03.406Z,39.50
2017-11-03T17:54:31.027Z,38.30
2017-11-03T17:56:59.075Z,33.03
2017-11-03T17:59:26.674Z,46.60
2017-11-03T18:01:54.246Z,42.47
2017-11-03T18:04:21.954Z,38.13
2017-11-03T18:06:49.548Z,39.80
2017-11-03T18:09:17.185Z,41.17
2017-11-03T18:11:44.771Z,42.20
2017-11-03T18:14:12.358Z,38.10
2017-11-03T18:16:39.977Z,37.17
2017-11-03T18:19:07.762Z,35.73
2017-11-03T18:21:35.376Z,35.90
2017-11-03T18:24:03.713Z,40.00
2017-11-03T18:26:31.419Z,40.47
2017-11-03T18:28:59.811Z,38.30
2017-11-03T18:31:27.402Z,37.63
2017-11-03T18:33:54.986Z,38.40
2017-11-03T18:36:22.587Z,41.87
2017-11-03T18:38:50.197Z,40.57
2017-11-03T18:41:17.770Z,37.87
2017-11-03T18:43:45.379Z,37.87
2017-11-03T18:46:12.959Z,46.23
2017-11-03T18:48:40.622Z,39.33
2017-11-03T18:51:08.232Z,39.63
2017-11-03T18:53:35.826Z,46.67
2017-11-03T18:56:03.414Z,39.80
2017-11-03T18:58:30.984Z,43.60
2017-11-03T19:00:58.584Z,42.80
2017-11-03T19:03:26.158Z,41.77
2017-11-03T19:05:54.552Z,36.37
2017-11-03T19:08:22.143Z,39.20
2017-11-03T19:10:49.755Z,43.23
2017-11-03T19:13:18.188Z,38.67
2017-11-03T19:15:45.766Z,39.20
2017-11-03T19:18:13.399Z,36.83
2017-11-03T19:20:41.054Z,42.40
2017-11-03T19:23:08.643Z,43.83
2017-11-03T19:25:36.243Z,42.17
2017-11-03T19:28:04.611Z,42.90
2017-11-03T19:30:32.200Z,46.03
2017-11-03T19:32:59.796Z,39.00
2017-11-03T19:35:27.446Z,42.87
2017-11-03T19:37:55.055Z,41.50
2017-11-03T19:40:22.724Z,43.43
2017-11-03T19:42:51.087Z,41.57
2017-11-03T19:45:18.648Z,43.83
2017-11-03T19:47:46.278Z,38.83
2017-11-03T19:50:13.925Z,46.97
2017-11-03T19:52:41.497Z,44.00
2017-11-03T19:55:09.105Z,37.13
2017-11-03T19:57:36.684Z,36.57
2017-11-03T20:00:05.339Z,39.20
2017-11-03T20:02:32.968Z,38.50
2017-11-03T20:05:00.547Z,37.27
2017-11-03T20:07:28.139Z,39.20
2017-11-03T20:09:55.746Z,39.40
2017-11-03T20:12:23.350Z,57.37
2017-11-03T20:14:50.956Z,44.90
2017-11-03T20:17:18.549Z,44.20
2017-11-03T20:19:46.161Z,42.30
2017-11-03T20:22:14.508Z,41.80
2017-11-03T20:24:42.118Z,45.73
2017-11-03T20:27:09.689Z,40.87
2017-11-03T20:29:37.334Z,38.27
2017-11-03T20:32:05.800Z,46.17
2017-11-03T20:34:34.219Z,44.57
2017-11-03T20:37:01.941Z,43.10
2017-11-03T20:39:29.538Z,44.63
2017-11-03T20:41:57.178Z,42.03
2017-11-03T20:44:25.544Z,38.50
2017-11-03T20:46:53.145Z,39.17
2017-11-03T20:49:21.482Z,43.80
2017-11-03T20:51:49.833Z,39.63
2017-11-03T20:54:17.424Z,40.77
2017-11-03T20:56:45.903Z,36.13
2017-11-03T20:59:14.307Z,42.43
2017-11-03T21:01:42.089Z,39.60
2017-11-03T21:04:09.714Z,39.67
2017-11-03T21:06:37.371Z,37.20
2017-11-03T21:09:04.958Z,43.87
2017-11-03T21:11:32.553Z,38.10
2017-11-03T21:14:00.139Z,35.30
2017-11-03T21:16:27.765Z,41.50
2017-11-03T21:18:55.338Z,38.40
2017-11-03T21:21:22.980Z,32.67
2017-11-03T21:23:50.542Z,37.60
2017-11-03T21:26:18.121Z,37.03
2017-11-03T21:28:45.722Z,41.90
2017-11-03T21:31:13.340Z,42.03
2017-11-03T21:33:41.671Z,40.23
2017-11-03T21:36:10.031Z,34.90
2017-11-03T21:38:37.609Z,35.57
2017-11-03T21:41:05.975Z,40.23
2017-11-03T21:43:33.540Z,41.10
2017-11-03T21:46:01.123Z,43.17
2017-11-03T21:48:29.477Z,35.97
2017-11-03T21:50:57.077Z,37.13
2017-11-03T21:53:24.693Z,38.60
2017-11-03T21:55:52.299Z,43.97
2017-11-03T21:58:20.521Z,38.27
2017-11-03T22:00:48.203Z,40.13
2017-11-03T22:03:16.054Z,42.83
2017-11-03T22:05:43.642Z,42.20
2017-11-03T22:08:11.990Z,40.30
2017-11-03T22:10:39.579Z,39.90
2017-11-03T22:13:07.916Z,44.03
2017-11-03T22:15:35.484Z,40.30
2017-11-03T22:18:03.080Z,45.00
2017-11-03T22:20:31.418Z,48.53
2017-11-03T22:22:59.024Z,40.67
2017-11-03T22:25:27.330Z,39.00
2017-11-03T22:27:54.942Z,44.60
2017-11-03T22:30:22.522Z,46.97
2017-11-03T22:32:50.098Z,48.83
2017-11-03T22:35:18.475Z,41.80
2017-11-03T22:37:47.267Z,46.70
2017-11-03T22:40:15.650Z,46.87
2017-11-03T22:42:43.995Z,48.20
2017-11-03T22:45:11.611Z,46.60
2017-11-03T22:47:39.188Z,47.70
2017-11-03T22:50:06.773Z,43.07
2017-11-03T22:52:34.368Z,46.93
2017-11-03T22:55:02.714Z,45.77
2017-11-03T22:57:30.432Z,43.97
2017-11-03T22:59:58.012Z,44.17
2017-11-03T23:02:25.616Z,45.20
2017-11-03T23:04:53.191Z,45.83
2017-11-03T23:07:21.537Z,47.97
2017-11-03T23:09:49.134Z,47.33
2017-11-03T23:12:17.485Z,43.27
2017-11-03T23:14:45.110Z,43.73
2017-11-03T23:17:12.710Z,42.80
2017-11-03T23:19:40.280Z,50.97
2017-11-03T23:22:07.939Z,45.27
2017-11-03T23:24:35.546Z,42.67
2017-11-03T23:27:03.138Z,41.07
2017-11-03T23:29:30.708Z,41.30
2017-11-03T23:31:58.358Z,41.67
2017-11-03T23:34:25.945Z,47.10
2017-11-03T23:36:53.553Z,41.77
2017-11-03T23:39:21.126Z,45.83
2017-11-03T23:41:48.722Z,45.97
2017-11-03T23:44:16.295Z,43.70
2017-11-03T23:46:43.891Z,45.83
2017-11-03T23:49:11.481Z,46.63
2017-11-03T23:51:39.096Z,43.87
2017-11-03T23:54:07.467Z,38.07
2017-11-03T23:56:35.816Z,41.00
2017-11-03T23:59:03.391Z,48.63
